Marchas de temperatura / otros que hicieron "historia".

Todo lo relacionado con el clima: estadísticas, pronósticos, tendencias...
Avatar de Usuario
Marcelo
Mensajes: 5676
Registrado: Jue Jul 30, 2009 3:42 pm
Ubicación: Villa Crespo, Ciudad de Buenos Aires

Re: Marchas de temperatura / otros que hicieron "historia".

Mensaje por Marcelo » Jue Dic 27, 2018 9:09 am

Si, es verdad... acaso San Antonio Oeste tiene con frecuencia alguna de esas marchas totalmente desparejas.
Será el impacto de ver el minuto a minuto entonces (?).
La posta para lo que sucede en Buenos Aires la tiene la estación de AEROPARQUE.

Mis threads de Climatología:
Mapas Climáticos de Argentina
Temperaturas Extremas de Argentina
Nevadas en Sitios Inusuales

Avatar de Usuario
HernanCba
Mensajes: 2990
Registrado: Sab Mar 02, 2013 1:21 am
Ubicación: Cosquín, Valle de Punilla, Córdoba
Contactar:

Re: Marchas de temperatura / otros que hicieron "historia".

Mensaje por HernanCba » Sab Ene 26, 2019 1:29 am

Marcha horaria de Córdoba Obs. que dejó Diecha en seguimiento. Bochornoso día húmedo ayer

Imagen

Avatar de Usuario
Ezequiel15
Mensajes: 10977
Registrado: Lun Ene 23, 2012 4:18 pm
Ubicación: Ramos Mejia, I Casanova o Monserrat
Contactar:

Re: Marchas de temperatura / otros que hicieron "historia".

Mensaje por Ezequiel15 » Sab Ene 26, 2019 9:04 pm

Resistencia: 50,8°C de ST a las 15hs
In GFS we don't trust
Los datos que escribo en Clima siempre son de OCBA.
https://infometeoba.blogspot.com.ar/

Stormy
Mensajes: 1128
Registrado: Vie Abr 07, 2017 5:19 pm
Ubicación: La Plata

Re: Marchas de temperatura / otros que hicieron "historia".

Mensaje por Stormy » Sab Ene 26, 2019 11:05 pm

Ahí queda posteada

Imagen
mateix escribió:pamperos que hacen disparar la T...
Marcelo escribió:Esa térmica es más trucha que cola de tornado.

Avatar de Usuario
Ezequiel15
Mensajes: 10977
Registrado: Lun Ene 23, 2012 4:18 pm
Ubicación: Ramos Mejia, I Casanova o Monserrat
Contactar:

Re: Marchas de temperatura / otros que hicieron "historia".

Mensaje por Ezequiel15 » Lun Feb 04, 2019 11:25 pm

Rio Grande 4-2-2019
Min 9,8°C Max 30,8°C


00hs 13,4
01hs 13,6
02hs 12,2
03hs 11,4
04hs 11,0
05hs 10,8
06hs 10,7
07hs 11,2
08hs 14,4
09hs 17,3
10hs 21,9
11hs 24,2
12hs 26,3
13hs 28,6
14hs 30,0
15hs 26,2
16hs 24,2
17hs 23,6
18hs 22,3
19hs 20,4
20hs 19,4
21hs 17,2
22hs 13,8
23hs 12,7

Spoiler
Mostrar
Estacion RIO GRANDE
05 - 02:00 Decodificado / Aeromet
AAXX 05024
87934 42980 03605 10127 20094 30010 40037 57009 555 10037 =
05 - 01:00 Decodificado / Aeromet
AAXX 05014
87934 42980 03608 10138 20083 30012 40038 57015 =
05 - 00:00 Decodificado / Aeromet
AAXX 05004
87934 32980 03613 10172 20092 30017 40043 57013 333 10308 20172 555 10043 64139 65209 =
04 - 23:00 Decodificado / Aeromet
AAXX 04234
87934 42980 03415 10194 20093 30020 40046 57016 =
04 - 22:00 Decodificado / Aeromet
AAXX 04224
87934 41958 03420 10204 20083 30026 40053 57016 70700 =
04 - 21:00 Decodificado / Aeromet
AAXX 04214
87934 41956 03422 10223 20097 30030 40057 57016 70700 555 10057 20000 =
04 - 20:00 Decodificado / Aeromet
AAXX 04204
87934 42980 03422 10236 20099 30036 40062 57023 =
04 - 19:00 Decodificado / Aeromet
AAXX 04194
87934 42980 03420 10242 20105 30042 40068 57016 =
04 - 18:00 Decodificado / Aeromet
AAXX 04184
87934 32980 03417 10262 20098 30046 40072 57020 555 10073 =
04 - 17:00 Decodificado / Aeromet
AAXX 04174
87934 42980 02716 10300 20065 30058 40085 57016 =
04 - 16:00 Decodificado / Aeromet
AAXX 04164
87934 42980 02718 10286 20073 30058 40084 57021 =
04 - 15:00 Decodificado / Aeromet
AAXX 04154
87934 42980 02720 10263 20079 30066 40093 57017 555 10093 =
04 - 14:00 Decodificado / Aeromet
AAXX 04144
87934 42980 02517 10242 20072 30074 40100 57012 =
04 - 13:00 Decodificado / Aeromet
AAXX 04134
87934 42980 02715 10219 20089 30080 40106 57007 =
04 - 12:00 Decodificado / Aeromet
AAXX 04124
87934 32980 22912 10173 20089 30084 40110 54000 80005 333 10200 20098 56006 82270 555 10110 60882 64210 65062 72539 74148 88134 =
04 - 11:00 Decodificado / Aeromet
AAXX 04114
87934 42980 22912 10144 20081 30086 40113 52003 80005 333 56006 82270 =
04 - 10:00 Decodificado / Aeromet
AAXX 04104
87934 42980 22912 10112 20071 30086 40112 54000 80005 333 56006 82270 =
04 - 09:00 Decodificado / Aeromet
AAXX 04094
87934 42980 22910 10107 20072 30084 40110 56005 80005 333 56006 82270 555 10110 =
04 - 08:00 Decodificado / Aeromet
AAXX 04084
87934 42980 02713 10108 20061 30084 40110 57011 =
04 - 07:00 Decodificado / Aeromet
AAXX 04074
87934 42980 02712 10110 20068 30086 40112 57016 555 10113 =
04 - 06:00 Decodificado / Aeromet
AAXX 04064
87934 32980 02914 10114 20068 30089 40115 57011 555 10115 =
04 - 05:00 Decodificado / Aeromet
AAXX 04054
87934 42980 02912 10122 20090 30094 40121 58001 =
04 - 04:00 Decodificado / Aeromet
AAXX 04044
87934 42980 02908 10136 20085 30102 40128 52011 555 10129 =
04 - 03:00 Decodificado / Aeromet
AAXX 04034
87934 42980 02706 10134 20073 30100 40126 52011 555 10126 =
In GFS we don't trust
Los datos que escribo en Clima siempre son de OCBA.
https://infometeoba.blogspot.com.ar/

Danywilde
Mensajes: 2386
Registrado: Mar Ene 24, 2012 1:41 pm
Ubicación: Wilde, Buenos Aires

Re: Marchas de temperatura / otros que hicieron "historia".

Mensaje por Danywilde » Mié Feb 06, 2019 10:14 am

https://www.infobae.com/sociedad/2019/0 ... argentino/
( BUENA NOTA, sin show ni conclusiones para la gilada )

Avatar de Usuario
Wyoming
Mensajes: 569
Registrado: Jue Jun 22, 2017 12:15 pm
Ubicación: General Roca/RN

Re: Marchas de temperatura / otros que hicieron "historia".

Mensaje por Wyoming » Lun Feb 18, 2019 7:39 am

Qué alguien suba la marcha térmica de Viedma que es digna para un cuadrito.

Avatar de Usuario
dlm86_fv
Mensajes: 4041
Registrado: Mié Abr 13, 2011 1:04 am
Ubicación: Estanislao Severo Zeballos, Florencio Varela, Gran Buenos Aires
Contactar:

Re: Marchas de temperatura / otros que hicieron "historia".

Mensaje por dlm86_fv » Mar Feb 26, 2019 1:12 pm

Imagen
Por muy larga que sea la tormenta, el sol siempre vuelve a brillar entre las nubes.

Atte, Diego de Varela.

Imagen

Avatar de Usuario
Marcelo
Mensajes: 5676
Registrado: Jue Jul 30, 2009 3:42 pm
Ubicación: Villa Crespo, Ciudad de Buenos Aires

Re: Marchas de temperatura / otros que hicieron "historia".

Mensaje por Marcelo » Mar Ago 06, 2019 9:23 am

EMA El Chocón - 5-ago-2019

No sabía bien donde poner esto, pero me pareció interesante compartir.
Supongo que es algo que pasa con cierta frecuencia en lugares muy próximos a cuerpos de agua. En este caso, en el día de ayer El Chocón se estuvo batiendo entre el zonda neuquino y la brisa del embalse. De esa manera durante la tarde tuvo abruptos cambios de temperatura, humedad y dirección del viento. El más notable, pasar en 10 minutos de 24,8°C y 8 % Hr a 12,4°C y 56% Hr.

Imagen
La posta para lo que sucede en Buenos Aires la tiene la estación de AEROPARQUE.

Mis threads de Climatología:
Mapas Climáticos de Argentina
Temperaturas Extremas de Argentina
Nevadas en Sitios Inusuales

Avatar de Usuario
Ernest
Mensajes: 11173
Registrado: Vie Jul 17, 2009 10:54 pm
Ubicación: Balvanera, CABA

Re: Marchas de temperatura / otros que hicieron "historia".

Mensaje por Ernest » Vie Dic 06, 2019 3:47 pm

Me había perdido esa marcha. Otra que "ponete la chaqueta, sacate la chaqueta" para el que estuviera por ahí.

Diferencia de máximas más alta entre OCBA y Rosario desde 1961 en adelante

A favor de Rosario: el 11/11/1988 (máxima OCBA 21,3 - máxima Rosario 34,5) - Aparentemente fue un frente cálido que activó algunas lluvias en AMBA
A favor de OCBA: el 8/3/1999 (máxima OCBA 33,4 - máxima Rosario 24,5) - Un frente frío que se medio-estacionó. En CABA el Td durante esa tarde llegó a superar los 25 grados.

Idem entre OCBA y Mar del Plata

A favor de OCBA: el 5/11/1995 (máxima OCBA 35,9 - máxima MDQ 17,1) - Obviamente con viento del este y lluvias en MDQ y nortes en OCBA
A favor de MDQ: el 17/3/2006 (máxima OCBA 18,3 - máxima MDQ 27,3) - Situación post-frontal, sur y lluvias en OCBA, sudoeste continental en MDQ

OCBA y Formosa

A favor de Formosa: 22/9/2015 (máxima OCBA 14,1 - máxima Formosa 38,7)
A favor de OCBA: 24/1/1989 (máxima OCBA 36,2 - máxima Formosa 27,1)

OCBA y Bariloche

A favor de OCBA: el 11/12/1968 (máxima OCBA 38,3 - máxima Bariloche 8,2) - Pasaje de una gran vaguada para la época
A favor de Bariloche: el 8/2/1993 (máxima OCBA 15,9 - máxima Bariloche 29,5) - La famosa gran sudestada

OCBA y Río Gallegos

A favor de OCBA: el 19/6/1965 (máxima OCBA 27,6 - máxima Río Gallegos -6,8) - En medio del hiper-cálido junio de 1965 ¡34,4 grados de diferencia!
A favor de Río Gallegos: el 7/2/1993 (máxima OCBA 16,7 - máxima Río Gallegos 27,0) - Otra vez la sudestada


Entre Formosa y Río Gallegos

A favor de Formosa: el 23/8/1995 (máxima Río Gallegos -1,7 - Formosa 36,5)
38,2 grados de diferencia nada menos. Entre mínimas fue de más de 30 también: -12,7 en RG vs 20,1 en Formosa
A favor de Río Gallegos: el 18/7/2010 (máxima Río Gallegos 14,8 - Formosa 7,4)

Si quieren alguna otra comparativa por el estilo me avisan (!)
Última edición por Ernest el Vie Dic 06, 2019 5:14 pm, editado 1 vez en total.
Did you want to talk about the weather, or were you just making chitchat?

Twitter: @ErnestoMeteo

Responder